createdAt,value
2018-11-27T00:00:56.073Z,10.93
2018-11-27T00:03:25.368Z,11.27
2018-11-27T00:05:54.866Z,12.17
2018-11-27T00:08:24.103Z,12.77
2018-11-27T00:10:53.487Z,11.50
2018-11-27T00:13:24.838Z,12.17
2018-11-27T00:15:54.089Z,11.43
2018-11-27T00:18:23.481Z,13.00
2018-11-27T00:20:53.599Z,12.23
2018-11-27T00:23:23.551Z,12.83
2018-11-27T00:25:53.019Z,13.53
2018-11-27T00:28:22.887Z,11.60
2018-11-27T00:30:52.231Z,10.83
2018-11-27T00:33:21.494Z,13.60
2018-11-27T00:35:50.687Z,14.20
2018-11-27T00:38:19.965Z,13.10
2018-11-27T00:40:49.194Z,12.80
2018-11-27T00:43:18.397Z,12.07
2018-11-27T00:45:47.659Z,13.60
2018-11-27T00:48:17.833Z,11.87
2018-11-27T00:50:47.078Z,12.87
2018-11-27T00:53:16.343Z,12.57
2018-11-27T00:55:45.553Z,11.93
2018-11-27T00:58:14.777Z,15.03
2018-11-27T01:00:43.994Z,11.60
2018-11-27T01:03:13.212Z,12.33
2018-11-27T01:05:42.446Z,12.77
2018-11-27T01:08:11.682Z,10.77
2018-11-27T01:10:40.978Z,11.67
2018-11-27T01:13:10.358Z,12.07
2018-11-27T01:15:40.287Z,11.20
2018-11-27T01:18:09.522Z,10.73
2018-11-27T01:20:38.729Z,13.77
2018-11-27T01:23:09.082Z,12.73
2018-11-27T01:25:39.109Z,9.63
2018-11-27T01:28:08.315Z,14.77
2018-11-27T01:30:37.551Z,11.70
2018-11-27T01:33:06.974Z,12.80
2018-11-27T01:35:36.252Z,11.70
2018-11-27T01:38:06.111Z,12.40
2018-11-27T01:40:35.468Z,15.53
2018-11-27T01:43:04.764Z,16.20
2018-11-27T01:45:34.057Z,13.80
2018-11-27T01:48:03.377Z,13.53
2018-11-27T01:50:32.793Z,13.87
2018-11-27T01:53:02.120Z,16.10
2018-11-27T01:55:31.691Z,15.87
2018-11-27T01:58:00.886Z,15.47
2018-11-27T02:00:31.254Z,15.50
2018-11-27T02:03:01.423Z,16.50
2018-11-27T02:05:31.461Z,16.23
2018-11-27T02:08:00.722Z,15.63
2018-11-27T02:10:30.087Z,17.40
2018-11-27T02:13:01.403Z,17.17
2018-11-27T02:15:29.855Z,17.67
2018-11-27T02:17:59.097Z,16.97
2018-11-27T02:20:28.353Z,16.63
2018-11-27T02:22:58.033Z,20.83
2018-11-27T02:25:28.663Z,17.97
2018-11-27T02:27:58.450Z,19.10
2018-11-27T02:30:28.531Z,18.73
2018-11-27T02:32:58.310Z,17.73
2018-11-27T02:35:27.593Z,18.77
2018-11-27T02:37:58.182Z,20.30
2018-11-27T02:40:27.562Z,20.97
2018-11-27T02:42:56.775Z,17.27
2018-11-27T02:45:26.559Z,19.10
2018-11-27T02:47:56.074Z,20.03
2018-11-27T02:50:26.451Z,19.77
2018-11-27T02:52:55.655Z,20.30
2018-11-27T02:55:26.247Z,18.73
2018-11-27T02:57:55.702Z,20.67
2018-11-27T03:00:27.417Z,21.33
2018-11-27T03:02:56.846Z,18.70
2018-11-27T03:05:27.514Z,22.47
2018-11-27T03:07:56.719Z,18.13
2018-11-27T03:10:25.974Z,19.67
2018-11-27T03:12:55.199Z,17.87
2018-11-27T03:15:24.446Z,19.73
2018-11-27T03:17:53.878Z,19.97
2018-11-27T03:20:27.729Z,21.00
2018-11-27T03:22:56.990Z,17.37
2018-11-27T03:25:26.307Z,21.07
2018-11-27T03:27:56.335Z,21.47
2018-11-27T03:30:27.031Z,20.93
2018-11-27T03:32:56.876Z,21.67
2018-11-27T03:35:27.148Z,19.83
2018-11-27T03:37:56.591Z,21.87
2018-11-27T03:40:27.611Z,19.27
2018-11-27T03:42:57.581Z,19.00
2018-11-27T03:45:27.097Z,22.07
2018-11-27T03:47:56.945Z,20.43
2018-11-27T03:50:28.314Z,22.10
2018-11-27T03:52:58.603Z,22.27
2018-11-27T03:55:27.897Z,21.77
2018-11-27T03:57:57.834Z,19.63
2018-11-27T04:00:28.538Z,22.63
2018-11-27T04:03:09.949Z,19.77
2018-11-27T04:05:39.668Z,24.47
2018-11-27T04:08:09.892Z,24.00
2018-11-27T04:10:40.528Z,24.03
2018-11-27T04:13:09.830Z,21.23
2018-11-27T04:15:39.288Z,22.90
2018-11-27T04:18:08.724Z,21.27
2018-11-27T04:20:37.943Z,24.53
2018-11-27T04:23:07.720Z,25.50
2018-11-27T04:25:37.251Z,25.77
2018-11-27T04:28:07.906Z,24.67
2018-11-27T04:30:37.182Z,24.10
2018-11-27T04:33:06.422Z,23.47
2018-11-27T04:35:35.648Z,24.27
2018-11-27T04:38:05.385Z,27.37
2018-11-27T04:40:34.785Z,25.80
2018-11-27T04:43:04.160Z,24.67
2018-11-27T04:45:33.580Z,23.73
2018-11-27T04:48:02.887Z,29.63
2018-11-27T04:50:32.956Z,26.13
2018-11-27T04:53:02.162Z,25.90
2018-11-27T04:55:31.396Z,26.30
2018-11-27T04:58:00.727Z,24.13
2018-11-27T05:00:31.489Z,27.23
2018-11-27T05:03:00.995Z,27.30
2018-11-27T05:05:30.232Z,27.53
2018-11-27T05:07:59.448Z,27.73
2018-11-27T05:10:29.449Z,30.90
2018-11-27T05:12:58.748Z,30.83
2018-11-27T05:15:34.563Z,29.37
2018-11-27T05:18:03.814Z,31.30
2018-11-27T05:20:33.371Z,31.70
2018-11-27T05:23:02.632Z,33.03
2018-11-27T05:25:32.649Z,37.77
2018-11-27T05:28:01.984Z,35.73
2018-11-27T05:30:31.255Z,35.93
2018-11-27T05:33:00.662Z,38.40
2018-11-27T05:35:30.797Z,38.10
2018-11-27T05:38:01.808Z,37.23
2018-11-27T05:40:31.175Z,38.90
2018-11-27T05:43:03.454Z,43.30
2018-11-27T05:45:32.995Z,40.00
2018-11-27T05:48:02.228Z,38.90
2018-11-27T05:50:31.514Z,40.77
2018-11-27T05:53:00.777Z,39.90
2018-11-27T05:55:30.140Z,39.43
2018-11-27T05:57:59.531Z,43.20
2018-11-27T06:00:29.882Z,48.07
2018-11-27T06:03:00.604Z,45.47
2018-11-27T06:05:30.073Z,45.60
2018-11-27T06:07:59.281Z,46.23
2018-11-27T06:10:29.315Z,53.10
2018-11-27T06:12:58.619Z,46.70
2018-11-27T06:15:28.583Z,52.20
2018-11-27T06:17:59.440Z,48.77
2018-11-27T06:20:28.650Z,51.03
2018-11-27T06:22:58.146Z,52.17
2018-11-27T06:25:29.571Z,49.83
2018-11-27T06:28:07.081Z,50.77
2018-11-27T06:30:36.582Z,53.83
2018-11-27T06:33:06.119Z,54.90
2018-11-27T06:35:39.211Z,48.00
2018-11-27T06:38:09.811Z,52.87
2018-11-27T06:40:39.609Z,48.13
2018-11-27T06:43:10.355Z,54.00
2018-11-27T06:45:40.679Z,49.60
2018-11-27T06:48:10.222Z,49.03
2018-11-27T06:50:39.455Z,48.60
2018-11-27T06:53:08.891Z,52.37
2018-11-27T06:55:38.511Z,50.70
2018-11-27T06:58:08.606Z,52.77
2018-11-27T07:00:37.981Z,46.87
2018-11-27T07:03:10.186Z,49.40
2018-11-27T07:05:39.841Z,54.53
2018-11-27T07:08:09.903Z,50.80
2018-11-27T07:10:41.023Z,49.97
2018-11-27T07:13:12.790Z,55.60
2018-11-27T07:15:42.124Z,52.13
2018-11-27T07:18:11.555Z,59.17
2018-11-27T07:20:41.063Z,59.70
2018-11-27T07:23:10.538Z,62.37
2018-11-27T07:25:40.342Z,55.20
2018-11-27T07:28:09.679Z,55.77
2018-11-27T07:30:40.494Z,58.60
2018-11-27T07:33:09.774Z,62.60
2018-11-27T07:35:39.053Z,54.77
2018-11-27T07:38:08.313Z,61.20
2018-11-27T07:40:37.567Z,63.70
2018-11-27T07:43:10.327Z,62.60
2018-11-27T07:45:40.086Z,57.80
2018-11-27T07:48:10.106Z,59.07
2018-11-27T07:50:39.491Z,62.93
2018-11-27T07:53:09.142Z,65.57
2018-11-27T07:55:38.427Z,59.60
2018-11-27T07:58:07.892Z,64.40
2018-11-27T08:00:38.449Z,58.40
2018-11-27T08:03:08.177Z,65.30
2018-11-27T08:05:39.815Z,58.83
2018-11-27T08:08:10.754Z,60.90
2018-11-27T08:10:40.358Z,68.73
2018-11-27T08:13:10.398Z,60.00
2018-11-27T08:15:40.284Z,58.50
2018-11-27T08:18:10.361Z,56.20
2018-11-27T08:20:39.709Z,57.70
2018-11-27T08:23:10.356Z,56.97
2018-11-27T08:25:40.215Z,53.87
2018-11-27T08:28:09.556Z,50.57
2018-11-27T08:30:38.804Z,55.83
2018-11-27T08:33:09.275Z,52.83
2018-11-27T08:35:38.634Z,50.70
2018-11-27T08:38:08.146Z,50.87
2018-11-27T08:40:37.386Z,49.13
2018-11-27T08:43:07.706Z,44.13
2018-11-27T08:45:37.022Z,45.53
2018-11-27T08:48:07.095Z,49.27
2018-11-27T08:50:36.355Z,40.27
2018-11-27T08:53:06.831Z,42.87
2018-11-27T08:55:40.477Z,39.27
2018-11-27T08:58:17.644Z,38.03
2018-11-27T09:00:46.909Z,38.00
2018-11-27T09:03:16.843Z,31.80
2018-11-27T09:05:46.166Z,29.00
2018-11-27T09:08:15.617Z,28.60
2018-11-27T09:10:44.873Z,28.20
2018-11-27T09:13:14.342Z,27.30
2018-11-27T09:15:44.198Z,28.07
2018-11-27T09:18:21.190Z,27.07
2018-11-27T09:20:50.593Z,27.53
2018-11-27T09:23:19.962Z,25.67
2018-11-27T09:25:49.474Z,26.50
2018-11-27T09:28:18.939Z,24.23
2018-11-27T09:30:48.732Z,27.23
2018-11-27T09:33:18.847Z,24.57
2018-11-27T09:35:48.646Z,21.93
2018-11-27T09:38:18.444Z,21.40
2018-11-27T09:40:48.179Z,23.57
2018-11-27T09:43:17.759Z,21.00
2018-11-27T09:45:47.987Z,18.60
2018-11-27T09:48:17.612Z,17.60
2018-11-27T09:50:46.901Z,19.53
2018-11-27T09:53:16.771Z,19.13
2018-11-27T09:55:46.262Z,17.97
2018-11-27T09:58:15.750Z,20.07
2018-11-27T10:00:45.009Z,19.60
2018-11-27T10:03:15.535Z,20.60
2018-11-27T10:05:45.126Z,19.83
2018-11-27T10:08:14.553Z,23.90
2018-11-27T10:10:43.875Z,21.00
2018-11-27T10:13:13.098Z,21.03
2018-11-27T10:15:43.064Z,21.27
2018-11-27T10:18:12.329Z,19.87
2018-11-27T10:20:42.603Z,18.37
2018-11-27T10:23:13.948Z,18.77
2018-11-27T10:25:43.840Z,18.37
2018-11-27T10:28:13.922Z,18.70
2018-11-27T10:30:43.202Z,17.37
2018-11-27T10:33:12.862Z,19.10
2018-11-27T10:35:50.633Z,16.77
2018-11-27T10:38:20.555Z,17.40
2018-11-27T10:40:49.799Z,16.60
2018-11-27T10:43:19.990Z,20.37
2018-11-27T10:45:48.276Z,17.70
2018-11-27T10:48:17.550Z,17.50
2018-11-27T10:50:46.824Z,19.13
2018-11-27T10:53:17.030Z,17.27
2018-11-27T10:55:47.061Z,18.83
2018-11-27T10:58:16.482Z,18.33
2018-11-27T11:00:50.958Z,21.17
2018-11-27T11:03:24.593Z,18.27
2018-11-27T11:05:56.075Z,19.33
2018-11-27T11:08:25.434Z,17.03
2018-11-27T11:10:54.652Z,18.50
2018-11-27T11:13:24.042Z,16.40
2018-11-27T11:15:53.261Z,18.97
2018-11-27T11:18:22.526Z,19.10
2018-11-27T11:20:52.075Z,19.17
2018-11-27T11:23:21.422Z,20.03
2018-11-27T11:25:51.926Z,22.13
2018-11-27T11:28:23.610Z,20.67
2018-11-27T11:30:52.848Z,24.13
2018-11-27T11:33:22.162Z,24.97
2018-11-27T11:35:52.195Z,28.90
2018-11-27T11:38:21.542Z,25.77
2018-11-27T11:40:50.798Z,26.00
2018-11-27T11:43:20.142Z,25.63
2018-11-27T11:45:49.494Z,29.37
2018-11-27T11:48:18.863Z,24.53
2018-11-27T11:50:48.272Z,25.07
2018-11-27T11:53:19.490Z,27.83
2018-11-27T11:55:49.286Z,26.40
2018-11-27T11:58:19.269Z,28.23
2018-11-27T12:00:51.520Z,28.73
2018-11-27T12:03:20.941Z,29.67
2018-11-27T12:05:51.022Z,29.33
2018-11-27T12:08:20.334Z,31.00
2018-11-27T12:10:49.614Z,30.13
2018-11-27T12:13:19.047Z,30.10
2018-11-27T12:15:48.322Z,29.80
2018-11-27T12:18:17.611Z,33.13
2018-11-27T12:20:47.117Z,30.83
2018-11-27T12:23:16.498Z,31.80
2018-11-27T12:25:46.423Z,30.37
2018-11-27T12:28:15.737Z,33.00
2018-11-27T12:30:45.069Z,32.90
2018-11-27T12:33:14.307Z,32.63
2018-11-27T12:35:43.668Z,31.87
2018-11-27T12:38:12.913Z,34.00
2018-11-27T12:40:42.914Z,35.57
2018-11-27T12:43:12.181Z,33.53
2018-11-27T12:45:41.581Z,33.30
2018-11-27T12:48:11.539Z,34.43
2018-11-27T12:50:43.529Z,34.40
2018-11-27T12:53:16.839Z,35.03
2018-11-27T12:55:45.927Z,31.10
2018-11-27T12:58:15.184Z,37.00
2018-11-27T13:00:44.427Z,32.77
2018-11-27T13:03:13.762Z,35.57
2018-11-27T13:05:44.509Z,33.90
2018-11-27T13:08:20.003Z,35.40
2018-11-27T13:10:49.332Z,33.40
2018-11-27T13:13:18.901Z,31.07
2018-11-27T13:15:48.260Z,31.03
2018-11-27T13:18:18.249Z,31.93
2018-11-27T13:20:48.051Z,32.60
2018-11-27T13:23:18.930Z,32.77
2018-11-27T13:25:48.241Z,32.13
2018-11-27T13:28:18.305Z,37.83
2018-11-27T13:30:54.565Z,32.73
2018-11-27T13:33:25.898Z,37.10
2018-11-27T13:35:55.172Z,33.83
2018-11-27T13:38:24.458Z,40.73
2018-11-27T13:40:53.734Z,38.73
2018-11-27T13:43:26.642Z,34.23
2018-11-27T13:45:57.124Z,35.53
2018-11-27T13:48:26.439Z,37.27
2018-11-27T13:50:56.440Z,37.63
2018-11-27T13:53:25.944Z,36.70
2018-11-27T13:55:55.723Z,37.60
2018-11-27T13:58:25.074Z,35.47
2018-11-27T14:00:55.043Z,36.97
2018-11-27T14:03:24.297Z,46.07
2018-11-27T14:05:53.590Z,37.80
2018-11-27T14:08:22.999Z,38.47
2018-11-27T14:10:52.380Z,39.03
2018-11-27T14:13:22.009Z,40.87
2018-11-27T14:15:51.338Z,35.67
2018-11-27T14:18:20.610Z,39.03
2018-11-27T14:20:49.986Z,39.60
2018-11-27T14:23:19.236Z,42.27
2018-11-27T14:25:48.498Z,38.80
2018-11-27T14:28:17.932Z,44.57
2018-11-27T14:30:47.237Z,43.97
2018-11-27T14:33:16.473Z,41.90
2018-11-27T14:35:45.784Z,44.27
2018-11-27T14:38:15.255Z,42.43
2018-11-27T14:40:44.678Z,43.60
2018-11-27T14:43:14.647Z,43.63
2018-11-27T14:45:43.919Z,43.87
2018-11-27T14:48:13.208Z,45.47
2018-11-27T14:50:42.433Z,45.50
2018-11-27T14:53:11.857Z,46.90
2018-11-27T14:55:41.479Z,49.50
2018-11-27T14:58:15.042Z,47.37
2018-11-27T15:00:40.743Z,47.20
2018-11-27T15:03:10.799Z,47.23
2018-11-27T15:05:40.565Z,51.00
2018-11-27T15:08:12.250Z,49.63
2018-11-27T15:10:41.584Z,51.27
2018-11-27T15:13:12.288Z,50.17
2018-11-27T15:15:42.444Z,51.80
2018-11-27T15:18:12.687Z,52.60
2018-11-27T15:20:42.790Z,47.20
2018-11-27T15:23:12.904Z,53.73
2018-11-27T15:25:42.156Z,55.97
2018-11-27T15:28:11.386Z,48.30
2018-11-27T15:30:40.624Z,48.80
2018-11-27T15:33:09.978Z,50.73
2018-11-27T15:35:39.903Z,54.03
2018-11-27T15:38:09.866Z,54.27
2018-11-27T15:40:39.927Z,47.70
2018-11-27T15:43:09.445Z,49.23
2018-11-27T15:45:45.666Z,48.73
2018-11-27T15:48:14.930Z,50.43
2018-11-27T15:50:44.170Z,48.50
2018-11-27T15:53:13.500Z,49.60
2018-11-27T15:55:42.781Z,56.77
2018-11-27T15:58:13.178Z,53.03
2018-11-27T16:00:43.528Z,48.53
2018-11-27T16:03:13.039Z,55.07
2018-11-27T16:05:44.460Z,53.03
2018-11-27T16:08:14.322Z,51.70
2018-11-27T16:10:43.819Z,55.90
2018-11-27T16:13:13.079Z,53.20
2018-11-27T16:15:43.072Z,48.77
2018-11-27T16:18:12.428Z,50.20
2018-11-27T16:20:42.492Z,48.23
2018-11-27T16:23:11.937Z,55.70
2018-11-27T16:25:41.198Z,55.37
2018-11-27T16:28:11.086Z,52.57
2018-11-27T16:30:40.462Z,50.27
2018-11-27T16:33:09.893Z,64.03
2018-11-27T16:35:39.172Z,59.73
2018-11-27T16:38:08.586Z,52.50
2018-11-27T16:40:39.107Z,48.90
2018-11-27T16:43:08.891Z,52.17
2018-11-27T16:45:38.185Z,49.63
2018-11-27T16:48:07.953Z,51.00
2018-11-27T16:50:37.244Z,53.87
2018-11-27T16:53:06.876Z,49.33
2018-11-27T16:55:36.095Z,47.37
2018-11-27T16:58:05.595Z,42.50
2018-11-27T17:00:35.417Z,45.60
2018-11-27T17:03:05.977Z,42.03
2018-11-27T17:05:40.544Z,41.57
2018-11-27T17:08:09.822Z,48.83
2018-11-27T17:10:40.720Z,41.33
2018-11-27T17:13:10.629Z,40.70
2018-11-27T17:15:39.878Z,42.77
2018-11-27T17:18:09.782Z,39.77
2018-11-27T17:20:40.255Z,39.00
2018-11-27T17:23:11.852Z,38.80
2018-11-27T17:25:41.174Z,38.83
2018-11-27T17:28:16.127Z,36.93
2018-11-27T17:31:11.530Z,41.20
2018-11-27T17:33:49.257Z,42.07
2018-11-27T17:36:18.587Z,37.70
2018-11-27T17:38:48.012Z,43.43
2018-11-27T17:41:17.459Z,42.70
2018-11-27T17:43:46.779Z,41.93
2018-11-27T17:46:16.040Z,40.87
2018-11-27T17:48:45.981Z,39.20
2018-11-27T17:51:16.750Z,38.83
2018-11-27T17:53:46.035Z,38.73
2018-11-27T17:56:15.357Z,40.60
2018-11-27T17:58:44.779Z,41.50
2018-11-27T18:01:14.020Z,39.83
2018-11-27T18:03:43.472Z,42.57
2018-11-27T18:06:12.763Z,38.90
2018-11-27T18:08:42.166Z,40.57
2018-11-27T18:11:12.111Z,41.73
2018-11-27T18:13:41.501Z,40.50
2018-11-27T18:16:10.767Z,42.10
2018-11-27T18:18:40.954Z,40.57
2018-11-27T18:21:10.228Z,43.70
2018-11-27T18:23:39.489Z,37.77
2018-11-27T18:26:08.842Z,41.50
2018-11-27T18:28:38.059Z,38.77
2018-11-27T18:31:07.762Z,39.60
2018-11-27T18:33:37.039Z,42.80
2018-11-27T18:36:06.655Z,40.37
2018-11-27T18:38:35.965Z,37.87
2018-11-27T18:41:05.910Z,39.53
2018-11-27T18:43:35.171Z,43.43
2018-11-27T18:46:05.123Z,41.37
2018-11-27T18:48:34.435Z,40.83
2018-11-27T18:51:03.721Z,41.50
2018-11-27T18:53:32.983Z,42.07
2018-11-27T18:56:03.112Z,40.03
2018-11-27T18:58:32.502Z,43.40
2018-11-27T19:01:01.770Z,41.50
2018-11-27T19:03:31.658Z,43.67
2018-11-27T19:06:01.823Z,39.80
2018-11-27T19:08:31.111Z,39.90
2018-11-27T19:11:00.398Z,43.43
2018-11-27T19:13:29.745Z,42.73
2018-11-27T19:15:59.066Z,42.53
2018-11-27T19:18:28.491Z,43.90
2018-11-27T19:20:57.759Z,43.77
2018-11-27T19:23:27.157Z,43.13
2018-11-27T19:25:56.405Z,41.70
2018-11-27T19:28:25.650Z,47.30
2018-11-27T19:30:55.678Z,42.30
2018-11-27T19:33:24.946Z,44.37
2018-11-27T19:35:54.232Z,37.40
2018-11-27T19:38:23.472Z,41.73
2018-11-27T19:40:52.744Z,38.43
2018-11-27T19:43:22.010Z,38.03
2018-11-27T19:45:51.292Z,37.53
2018-11-27T19:48:20.528Z,38.83
2018-11-27T19:50:49.826Z,39.43
2018-11-27T19:53:22.171Z,41.30
2018-11-27T19:55:52.269Z,37.33
2018-11-27T19:58:21.668Z,36.43
2018-11-27T20:00:50.995Z,40.13
2018-11-27T20:03:20.390Z,37.30
2018-11-27T20:05:49.785Z,38.80
2018-11-27T20:08:19.166Z,37.10
2018-11-27T20:10:48.437Z,37.10
2018-11-27T20:13:17.702Z,39.27
2018-11-27T20:15:47.611Z,38.43
2018-11-27T20:18:17.741Z,41.43
2018-11-27T20:20:46.994Z,39.23
2018-11-27T20:23:17.060Z,44.77
2018-11-27T20:25:46.328Z,41.90
2018-11-27T20:28:15.664Z,43.33
2018-11-27T20:30:45.144Z,41.90
2018-11-27T20:33:15.187Z,44.90
2018-11-27T20:35:45.629Z,50.40
2018-11-27T20:38:14.066Z,45.33
2018-11-27T20:40:43.378Z,43.73
2018-11-27T20:43:12.635Z,48.37
2018-11-27T20:45:48.548Z,45.50
2018-11-27T20:48:19.093Z,45.87
2018-11-27T20:50:50.741Z,46.57
2018-11-27T20:53:20.040Z,47.70
2018-11-27T20:55:49.898Z,44.70
2018-11-27T20:58:19.204Z,44.53
2018-11-27T21:00:50.342Z,43.00
2018-11-27T21:03:19.647Z,49.87
2018-11-27T21:05:49.547Z,49.67
2018-11-27T21:08:18.869Z,47.07
2018-11-27T21:10:48.186Z,48.67
2018-11-27T21:13:19.015Z,48.90
2018-11-27T21:15:48.361Z,50.97
2018-11-27T21:18:18.857Z,48.43
2018-11-27T21:20:48.109Z,48.63
2018-11-27T21:23:17.426Z,48.07
2018-11-27T21:25:46.679Z,44.10
2018-11-27T21:28:17.678Z,49.70
2018-11-27T21:30:48.972Z,52.60
2018-11-27T21:33:18.231Z,53.03
2018-11-27T21:35:47.642Z,48.60
2018-11-27T21:38:16.945Z,46.20
2018-11-27T21:40:46.186Z,48.40
2018-11-27T21:43:15.618Z,51.47
2018-11-27T21:45:44.973Z,44.57
2018-11-27T21:48:16.021Z,49.73
2018-11-27T21:50:45.284Z,47.20
2018-11-27T21:53:14.689Z,46.93
2018-11-27T21:55:44.683Z,48.33
2018-11-27T21:58:13.946Z,44.30
2018-11-27T22:00:44.354Z,44.87
2018-11-27T22:03:13.747Z,48.47
2018-11-27T22:05:43.667Z,50.83
2018-11-27T22:08:12.954Z,53.03
2018-11-27T22:10:42.269Z,48.90
2018-11-27T22:13:13.193Z,46.23
2018-11-27T22:15:44.003Z,47.93
2018-11-27T22:18:13.925Z,47.23
2018-11-27T22:20:44.155Z,46.07
2018-11-27T22:23:14.070Z,52.63
2018-11-27T22:25:43.305Z,53.77
2018-11-27T22:28:12.562Z,46.97
2018-11-27T22:30:42.535Z,49.93
2018-11-27T22:33:11.813Z,51.13
2018-11-27T22:35:41.066Z,52.60
2018-11-27T22:38:10.290Z,45.53
2018-11-27T22:40:39.520Z,47.17
2018-11-27T22:43:09.648Z,53.83
2018-11-27T22:45:40.122Z,49.43
2018-11-27T22:48:11.353Z,51.97
2018-11-27T22:50:41.261Z,48.30
2018-11-27T22:53:10.682Z,49.13
2018-11-27T22:55:40.578Z,54.27
2018-11-27T22:58:09.868Z,54.70
2018-11-27T23:00:44.687Z,52.73
2018-11-27T23:03:14.136Z,53.03
2018-11-27T23:05:44.109Z,52.47
2018-11-27T23:08:13.567Z,55.70
2018-11-27T23:10:44.114Z,55.33
2018-11-27T23:13:13.416Z,54.23
2018-11-27T23:15:42.688Z,51.63
2018-11-27T23:18:12.097Z,57.87
2018-11-27T23:20:41.443Z,55.17
2018-11-27T23:23:10.823Z,52.07
2018-11-27T23:25:40.115Z,52.67
2018-11-27T23:28:09.370Z,55.60
2018-11-27T23:30:38.653Z,49.87
2018-11-27T23:33:07.995Z,62.50
2018-11-27T23:35:37.288Z,56.10
2018-11-27T23:38:07.107Z,56.90
2018-11-27T23:40:36.418Z,57.47
2018-11-27T23:43:06.699Z,53.73
2018-11-27T23:45:35.967Z,48.80
2018-11-27T23:48:05.318Z,50.60
2018-11-27T23:50:34.669Z,56.77
2018-11-27T23:53:04.098Z,49.77
2018-11-27T23:55:33.478Z,51.67
2018-11-27T23:58:02.706Z,52.00
